sensor_id;sensor_type;location;lat;lon;timestamp;P1;durP1;ratioP1;P2;durP2;ratioP2
2406;SDS011;37709;53.480;9.688;2023-09-12T00:00:14;40.47;;;36.20;;
2406;SDS011;37709;53.480;9.688;2023-09-12T00:02:42;40.53;;;36.23;;
2406;SDS011;37709;53.480;9.688;2023-09-12T00:05:10;38.60;;;34.47;;
2406;SDS011;37709;53.480;9.688;2023-09-12T00:07:38;40.10;;;35.77;;
2406;SDS011;37709;53.480;9.688;2023-09-12T00:10:06;40.73;;;36.43;;
2406;SDS011;37709;53.480;9.688;2023-09-12T00:12:33;42.40;;;34.43;;
2406;SDS011;37709;53.480;9.688;2023-09-12T00:15:03;41.93;;;37.37;;
2406;SDS011;37709;53.480;9.688;2023-09-12T00:17:32;41.77;;;37.10;;
2406;SDS011;37709;53.480;9.688;2023-09-12T00:20:04;36.70;;;32.50;;
2406;SDS011;37709;53.480;9.688;2023-09-12T00:22:35;41.30;;;35.87;;
2406;SDS011;37709;53.480;9.688;2023-09-12T00:25:07;41.27;;;36.93;;
2406;SDS011;37709;53.480;9.688;2023-09-12T00:27:39;44.70;;;34.10;;
2406;SDS011;37709;53.480;9.688;2023-09-12T00:35:57;45.63;;;38.80;;
2406;SDS011;37709;53.480;9.688;2023-09-12T00:38:25;43.23;;;36.57;;
2406;SDS011;37709;53.480;9.688;2023-09-12T00:40:53;42.00;;;37.60;;
2406;SDS011;37709;53.480;9.688;2023-09-12T00:43:22;41.80;;;37.33;;
2406;SDS011;37709;53.480;9.688;2023-09-12T00:45:52;40.73;;;36.30;;
2406;SDS011;37709;53.480;9.688;2023-09-12T00:48:20;39.93;;;35.40;;
2406;SDS011;37709;53.480;9.688;2023-09-12T00:50:50;40.73;;;36.60;;
2406;SDS011;37709;53.480;9.688;2023-09-12T00:53:20;44.67;;;36.10;;
2406;SDS011;37709;53.480;9.688;2023-09-12T00:55:54;44.07;;;37.27;;
2406;SDS011;37709;53.480;9.688;2023-09-12T00:58:26;38.63;;;34.47;;
2406;SDS011;37709;53.480;9.688;2023-09-12T01:00:58;38.57;;;34.03;;
2406;SDS011;37709;53.480;9.688;2023-09-12T01:03:25;41.40;;;35.30;;
2406;SDS011;37709;53.480;9.688;2023-09-12T01:05:55;43.63;;;34.17;;
2406;SDS011;37709;53.480;9.688;2023-09-12T01:08:25;41.63;;;34.97;;
2406;SDS011;37709;53.480;9.688;2023-09-12T01:10:55;39.10;;;33.20;;
2406;SDS011;37709;53.480;9.688;2023-09-12T01:13:26;40.13;;;33.60;;
2406;SDS011;37709;53.480;9.688;2023-09-12T01:15:56;30.67;;;27.37;;
2406;SDS011;37709;53.480;9.688;2023-09-12T01:18:24;40.87;;;35.50;;
2406;SDS011;37709;53.480;9.688;2023-09-12T01:20:59;44.50;;;35.17;;
2406;SDS011;37709;53.480;9.688;2023-09-12T01:26:47;52.60;;;39.30;;
2406;SDS011;37709;53.480;9.688;2023-09-12T01:29:25;55.60;;;39.80;;
2406;SDS011;37709;53.480;9.688;2023-09-12T01:31:54;56.80;;;39.73;;
2406;SDS011;37709;53.480;9.688;2023-09-12T01:34:23;55.93;;;38.17;;
2406;SDS011;37709;53.480;9.688;2023-09-12T01:36:51;47.17;;;38.30;;
2406;SDS011;37709;53.480;9.688;2023-09-12T01:39:19;49.03;;;36.77;;
2406;SDS011;37709;53.480;9.688;2023-09-12T01:41:48;56.30;;;39.13;;
2406;SDS011;37709;53.480;9.688;2023-09-12T01:44:24;68.43;;;42.73;;
2406;SDS011;37709;53.480;9.688;2023-09-12T01:46:54;66.83;;;39.83;;
2406;SDS011;37709;53.480;9.688;2023-09-12T01:52:23;82.03;;;44.10;;
2406;SDS011;37709;53.480;9.688;2023-09-12T01:54:52;63.40;;;41.87;;
2406;SDS011;37709;53.480;9.688;2023-09-12T01:57:20;62.20;;;43.93;;
2406;SDS011;37709;53.480;9.688;2023-09-12T01:59:52;81.53;;;46.73;;
2406;SDS011;37709;53.480;9.688;2023-09-12T02:02:19;74.40;;;44.90;;
2406;SDS011;37709;53.480;9.688;2023-09-12T02:04:51;76.30;;;45.40;;
2406;SDS011;37709;53.480;9.688;2023-09-12T02:07:29;107.63;;;51.03;;
2406;SDS011;37709;53.480;9.688;2023-09-12T02:10:00;82.47;;;46.80;;
2406;SDS011;37709;53.480;9.688;2023-09-12T02:12:28;84.87;;;49.07;;
2406;SDS011;37709;53.480;9.688;2023-09-12T02:14:59;83.73;;;47.13;;
2406;SDS011;37709;53.480;9.688;2023-09-12T02:17:26;87.83;;;47.07;;
2406;SDS011;37709;53.480;9.688;2023-09-12T02:19:56;100.67;;;47.43;;
2406;SDS011;37709;53.480;9.688;2023-09-12T02:22:24;95.23;;;46.80;;
2406;SDS011;37709;53.480;9.688;2023-09-12T02:24:51;80.93;;;47.50;;
2406;SDS011;37709;53.480;9.688;2023-09-12T02:27:19;94.53;;;50.10;;
2406;SDS011;37709;53.480;9.688;2023-09-12T02:29:48;78.10;;;44.10;;
2406;SDS011;37709;53.480;9.688;2023-09-12T02:32:16;71.70;;;43.80;;
2406;SDS011;37709;53.480;9.688;2023-09-12T02:34:43;80.60;;;45.73;;
2406;SDS011;37709;53.480;9.688;2023-09-12T02:37:11;64.10;;;43.63;;
2406;SDS011;37709;53.480;9.688;2023-09-12T02:39:39;90.70;;;47.87;;
2406;SDS011;37709;53.480;9.688;2023-09-12T02:42:07;93.97;;;50.33;;
2406;SDS011;37709;53.480;9.688;2023-09-12T02:44:34;120.03;;;51.80;;
2406;SDS011;37709;53.480;9.688;2023-09-12T02:47:03;93.27;;;49.17;;
2406;SDS011;37709;53.480;9.688;2023-09-12T02:52:24;149.87;;;58.77;;
2406;SDS011;37709;53.480;9.688;2023-09-12T02:54:57;89.43;;;50.00;;
2406;SDS011;37709;53.480;9.688;2023-09-12T02:57:26;121.10;;;53.50;;
2406;SDS011;37709;53.480;9.688;2023-09-12T02:59:54;106.00;;;49.63;;
2406;SDS011;37709;53.480;9.688;2023-09-12T03:02:21;118.80;;;53.57;;
2406;SDS011;37709;53.480;9.688;2023-09-12T03:04:51;137.63;;;54.63;;
2406;SDS011;37709;53.480;9.688;2023-09-12T03:07:19;93.20;;;49.00;;
2406;SDS011;37709;53.480;9.688;2023-09-12T03:09:52;84.60;;;50.43;;
2406;SDS011;37709;53.480;9.688;2023-09-12T03:12:22;95.90;;;48.10;;
2406;SDS011;37709;53.480;9.688;2023-09-12T03:14:49;103.37;;;50.00;;
2406;SDS011;37709;53.480;9.688;2023-09-12T03:17:17;109.17;;;50.70;;
2406;SDS011;37709;53.480;9.688;2023-09-12T03:19:44;107.30;;;50.53;;
2406;SDS011;37709;53.480;9.688;2023-09-12T03:22:15;128.57;;;55.17;;
2406;SDS011;37709;53.480;9.688;2023-09-12T03:24:43;152.63;;;59.77;;
2406;SDS011;37709;53.480;9.688;2023-09-12T03:27:12;150.40;;;53.37;;
2406;SDS011;37709;53.480;9.688;2023-09-12T03:29:42;152.17;;;58.20;;
2406;SDS011;37709;53.480;9.688;2023-09-12T03:32:17;102.47;;;51.47;;
2406;SDS011;37709;53.480;9.688;2023-09-12T03:34:46;152.63;;;54.80;;
2406;SDS011;37709;53.480;9.688;2023-09-12T03:37:13;165.63;;;58.63;;
2406;SDS011;37709;53.480;9.688;2023-09-12T03:39:41;151.00;;;57.97;;
2406;SDS011;37709;53.480;9.688;2023-09-12T03:42:09;168.77;;;60.33;;
2406;SDS011;37709;53.480;9.688;2023-09-12T03:44:37;132.43;;;55.07;;
2406;SDS011;37709;53.480;9.688;2023-09-12T03:47:08;197.43;;;64.07;;
2406;SDS011;37709;53.480;9.688;2023-09-12T03:49:38;158.97;;;60.77;;
2406;SDS011;37709;53.480;9.688;2023-09-12T03:52:07;161.97;;;59.13;;
2406;SDS011;37709;53.480;9.688;2023-09-12T03:54:38;191.17;;;62.43;;
2406;SDS011;37709;53.480;9.688;2023-09-12T03:59:59;174.40;;;61.53;;
2406;SDS011;37709;53.480;9.688;2023-09-12T04:05:20;104.90;;;53.70;;
2406;SDS011;37709;53.480;9.688;2023-09-12T04:07:47;138.33;;;57.23;;
2406;SDS011;37709;53.480;9.688;2023-09-12T04:10:17;284.83;;;74.13;;
2406;SDS011;37709;53.480;9.688;2023-09-12T04:12:48;214.87;;;67.87;;
2406;SDS011;37709;53.480;9.688;2023-09-12T04:15:16;220.07;;;65.70;;
2406;SDS011;37709;53.480;9.688;2023-09-12T04:17:43;226.27;;;69.00;;
2406;SDS011;37709;53.480;9.688;2023-09-12T04:20:11;126.33;;;55.10;;
2406;SDS011;37709;53.480;9.688;2023-09-12T04:22:43;150.97;;;58.30;;
2406;SDS011;37709;53.480;9.688;2023-09-12T04:25:12;235.20;;;71.60;;
2406;SDS011;37709;53.480;9.688;2023-09-12T04:27:41;169.67;;;58.77;;
2406;SDS011;37709;53.480;9.688;2023-09-12T04:30:10;272.20;;;68.53;;
2406;SDS011;37709;53.480;9.688;2023-09-12T04:32:38;223.17;;;62.33;;
2406;SDS011;37709;53.480;9.688;2023-09-12T04:35:07;204.93;;;67.53;;
2406;SDS011;37709;53.480;9.688;2023-09-12T04:37:35;195.20;;;58.97;;
2406;SDS011;37709;53.480;9.688;2023-09-12T04:40:03;196.43;;;64.37;;
2406;SDS011;37709;53.480;9.688;2023-09-12T04:45:27;241.23;;;69.27;;
2406;SDS011;37709;53.480;9.688;2023-09-12T04:50:49;130.80;;;53.93;;
2406;SDS011;37709;53.480;9.688;2023-09-12T04:53:17;210.97;;;63.67;;
2406;SDS011;37709;53.480;9.688;2023-09-12T04:55:44;228.03;;;67.47;;
2406;SDS011;37709;53.480;9.688;2023-09-12T04:58:13;276.97;;;72.60;;
2406;SDS011;37709;53.480;9.688;2023-09-12T05:00:40;162.73;;;60.10;;
2406;SDS011;37709;53.480;9.688;2023-09-12T05:03:11;249.13;;;70.73;;
2406;SDS011;37709;53.480;9.688;2023-09-12T05:05:38;214.97;;;65.17;;
2406;SDS011;37709;53.480;9.688;2023-09-12T05:08:06;214.37;;;65.10;;
2406;SDS011;37709;53.480;9.688;2023-09-12T05:13:32;196.07;;;62.17;;
2406;SDS011;37709;53.480;9.688;2023-09-12T05:16:04;135.33;;;55.53;;
2406;SDS011;37709;53.480;9.688;2023-09-12T05:18:31;250.63;;;66.93;;
2406;SDS011;37709;53.480;9.688;2023-09-12T05:21:06;279.37;;;74.90;;
2406;SDS011;37709;53.480;9.688;2023-09-12T05:23:34;277.73;;;75.17;;
2406;SDS011;37709;53.480;9.688;2023-09-12T05:26:03;189.03;;;65.03;;
2406;SDS011;37709;53.480;9.688;2023-09-12T05:28:30;339.63;;;76.63;;
2406;SDS011;37709;53.480;9.688;2023-09-12T05:30:59;291.50;;;71.77;;
2406;SDS011;37709;53.480;9.688;2023-09-12T05:33:27;255.93;;;69.73;;
2406;SDS011;37709;53.480;9.688;2023-09-12T05:35:59;95.27;;;47.20;;
2406;SDS011;37709;53.480;9.688;2023-09-12T05:38:29;318.07;;;81.30;;
2406;SDS011;37709;53.480;9.688;2023-09-12T05:43:49;271.17;;;74.47;;
2406;SDS011;37709;53.480;9.688;2023-09-12T05:46:16;99.97;;;49.50;;
2406;SDS011;37709;53.480;9.688;2023-09-12T05:48:44;314.20;;;78.17;;
2406;SDS011;37709;53.480;9.688;2023-09-12T05:51:12;333.13;;;82.37;;
2406;SDS011;37709;53.480;9.688;2023-09-12T05:53:40;261.07;;;70.40;;
2406;SDS011;37709;53.480;9.688;2023-09-12T05:56:09;212.67;;;64.90;;
2406;SDS011;37709;53.480;9.688;2023-09-12T05:58:39;220.40;;;66.43;;
2406;SDS011;37709;53.480;9.688;2023-09-12T06:01:09;295.70;;;71.60;;
2406;SDS011;37709;53.480;9.688;2023-09-12T06:03:38;297.47;;;77.33;;
2406;SDS011;37709;53.480;9.688;2023-09-12T06:08:59;164.33;;;59.63;;
2406;SDS011;37709;53.480;9.688;2023-09-12T06:11:27;267.70;;;71.33;;
2406;SDS011;37709;53.480;9.688;2023-09-12T06:13:56;300.70;;;76.20;;
2406;SDS011;37709;53.480;9.688;2023-09-12T06:16:26;84.03;;;47.33;;
2406;SDS011;37709;53.480;9.688;2023-09-12T06:18:53;376.93;;;80.63;;
2406;SDS011;37709;53.480;9.688;2023-09-12T06:21:23;276.40;;;70.50;;
2406;SDS011;37709;53.480;9.688;2023-09-12T06:24:07;173.97;;;57.57;;
2406;SDS011;37709;53.480;9.688;2023-09-12T06:26:39;265.93;;;69.70;;
2406;SDS011;37709;53.480;9.688;2023-09-12T06:29:07;207.23;;;62.83;;
2406;SDS011;37709;53.480;9.688;2023-09-12T06:31:36;203.47;;;64.63;;
2406;SDS011;37709;53.480;9.688;2023-09-12T06:34:08;241.13;;;66.70;;
2406;SDS011;37709;53.480;9.688;2023-09-12T06:36:37;284.13;;;72.93;;
2406;SDS011;37709;53.480;9.688;2023-09-12T06:39:05;286.40;;;72.27;;
2406;SDS011;37709;53.480;9.688;2023-09-12T06:41:32;118.17;;;53.27;;
2406;SDS011;37709;53.480;9.688;2023-09-12T06:44:00;127.53;;;55.97;;
2406;SDS011;37709;53.480;9.688;2023-09-12T06:46:29;151.23;;;59.73;;
2406;SDS011;37709;53.480;9.688;2023-09-12T06:48:57;191.80;;;61.90;;
2406;SDS011;37709;53.480;9.688;2023-09-12T06:51:24;94.27;;;51.07;;
2406;SDS011;37709;53.480;9.688;2023-09-12T06:53:58;135.77;;;56.40;;
2406;SDS011;37709;53.480;9.688;2023-09-12T06:56:27;127.30;;;56.03;;
2406;SDS011;37709;53.480;9.688;2023-09-12T06:58:54;145.37;;;53.37;;
2406;SDS011;37709;53.480;9.688;2023-09-12T07:01:26;129.87;;;54.73;;
2406;SDS011;37709;53.480;9.688;2023-09-12T07:03:57;99.10;;;49.90;;
2406;SDS011;37709;53.480;9.688;2023-09-12T07:06:27;142.93;;;53.50;;
2406;SDS011;37709;53.480;9.688;2023-09-12T07:08:56;113.67;;;52.70;;
2406;SDS011;37709;53.480;9.688;2023-09-12T07:11:24;96.50;;;49.57;;
2406;SDS011;37709;53.480;9.688;2023-09-12T07:13:54;59.13;;;39.27;;
2406;SDS011;37709;53.480;9.688;2023-09-12T07:16:24;73.30;;;46.40;;
2406;SDS011;37709;53.480;9.688;2023-09-12T07:21:44;80.90;;;47.17;;
2406;SDS011;37709;53.480;9.688;2023-09-12T07:24:13;79.77;;;47.07;;
2406;SDS011;37709;53.480;9.688;2023-09-12T07:26:40;59.80;;;40.70;;
2406;SDS011;37709;53.480;9.688;2023-09-12T07:32:04;56.90;;;39.87;;
2406;SDS011;37709;53.480;9.688;2023-09-12T07:34:36;58.17;;;42.17;;
2406;SDS011;37709;53.480;9.688;2023-09-12T07:37:11;63.23;;;42.73;;
2406;SDS011;37709;53.480;9.688;2023-09-12T07:39:40;55.77;;;42.47;;
2406;SDS011;37709;53.480;9.688;2023-09-12T07:42:07;44.60;;;37.40;;
2406;SDS011;37709;53.480;9.688;2023-09-12T07:44:35;48.97;;;39.77;;
2406;SDS011;37709;53.480;9.688;2023-09-12T07:47:03;47.50;;;39.77;;
2406;SDS011;37709;53.480;9.688;2023-09-12T07:49:32;48.20;;;38.13;;
2406;SDS011;37709;53.480;9.688;2023-09-12T07:51:59;46.60;;;39.07;;
2406;SDS011;37709;53.480;9.688;2023-09-12T07:54:27;41.53;;;37.07;;
2406;SDS011;37709;53.480;9.688;2023-09-12T07:56:59;39.90;;;35.70;;
2406;SDS011;37709;53.480;9.688;2023-09-12T07:59:27;37.97;;;33.97;;
2406;SDS011;37709;53.480;9.688;2023-09-12T08:01:54;35.23;;;31.67;;
2406;SDS011;37709;53.480;9.688;2023-09-12T08:04:22;37.30;;;33.47;;
2406;SDS011;37709;53.480;9.688;2023-09-12T08:06:50;35.30;;;31.50;;
2406;SDS011;37709;53.480;9.688;2023-09-12T08:12:26;30.67;;;27.40;;
2406;SDS011;37709;53.480;9.688;2023-09-12T08:14:54;34.97;;;31.27;;
2406;SDS011;37709;53.480;9.688;2023-09-12T08:17:24;34.13;;;30.87;;
2406;SDS011;37709;53.480;9.688;2023-09-12T08:19:54;30.47;;;27.67;;
2406;SDS011;37709;53.480;9.688;2023-09-12T08:22:22;28.70;;;25.90;;
2406;SDS011;37709;53.480;9.688;2023-09-12T08:24:54;29.57;;;27.00;;
2406;SDS011;37709;53.480;9.688;2023-09-12T08:27:22;30.27;;;27.37;;
2406;SDS011;37709;53.480;9.688;2023-09-12T08:29:51;26.37;;;23.83;;
2406;SDS011;37709;53.480;9.688;2023-09-12T08:35:15;27.93;;;25.10;;
2406;SDS011;37709;53.480;9.688;2023-09-12T08:37:42;28.07;;;25.20;;
2406;SDS011;37709;53.480;9.688;2023-09-12T08:43:29;29.53;;;26.50;;
2406;SDS011;37709;53.480;9.688;2023-09-12T08:45:59;29.47;;;26.67;;
2406;SDS011;37709;53.480;9.688;2023-09-12T08:48:26;28.83;;;26.03;;
2406;SDS011;37709;53.480;9.688;2023-09-12T08:50:57;31.83;;;28.63;;
2406;SDS011;37709;53.480;9.688;2023-09-12T08:53:26;28.50;;;25.73;;
2406;SDS011;37709;53.480;9.688;2023-09-12T08:58:48;27.80;;;25.13;;
2406;SDS011;37709;53.480;9.688;2023-09-12T09:04:09;29.33;;;26.43;;
2406;SDS011;37709;53.480;9.688;2023-09-12T09:06:38;27.47;;;24.87;;
2406;SDS011;37709;53.480;9.688;2023-09-12T09:09:09;28.97;;;26.17;;
2406;SDS011;37709;53.480;9.688;2023-09-12T09:11:40;27.23;;;24.73;;
2406;SDS011;37709;53.480;9.688;2023-09-12T09:17:06;25.50;;;23.20;;
2406;SDS011;37709;53.480;9.688;2023-09-12T09:19:57;24.53;;;22.23;;
2406;SDS011;37709;53.480;9.688;2023-09-12T09:22:24;25.03;;;22.60;;
2406;SDS011;37709;53.480;9.688;2023-09-12T09:25:02;25.60;;;23.03;;
2406;SDS011;37709;53.480;9.688;2023-09-12T09:27:38;24.47;;;22.40;;
2406;SDS011;37709;53.480;9.688;2023-09-12T09:30:07;23.50;;;21.43;;
2406;SDS011;37709;53.480;9.688;2023-09-12T09:32:38;23.30;;;21.20;;
2406;SDS011;37709;53.480;9.688;2023-09-12T09:35:07;24.83;;;22.67;;
2406;SDS011;37709;53.480;9.688;2023-09-12T09:37:38;22.53;;;20.57;;
2406;SDS011;37709;53.480;9.688;2023-09-12T09:40:12;21.77;;;19.70;;
2406;SDS011;37709;53.480;9.688;2023-09-12T09:42:40;23.33;;;21.17;;
2406;SDS011;37709;53.480;9.688;2023-09-12T09:45:10;22.87;;;20.63;;
2406;SDS011;37709;53.480;9.688;2023-09-12T09:47:37;22.93;;;21.03;;
2406;SDS011;37709;53.480;9.688;2023-09-12T09:50:05;23.90;;;21.80;;
2406;SDS011;37709;53.480;9.688;2023-09-12T09:52:35;22.90;;;20.80;;
2406;SDS011;37709;53.480;9.688;2023-09-12T09:55:05;22.07;;;20.17;;
2406;SDS011;37709;53.480;9.688;2023-09-12T09:57:36;23.93;;;21.77;;
2406;SDS011;37709;53.480;9.688;2023-09-12T10:00:05;22.60;;;20.63;;
2406;SDS011;37709;53.480;9.688;2023-09-12T10:02:36;23.30;;;21.30;;
2406;SDS011;37709;53.480;9.688;2023-09-12T10:05:06;23.30;;;21.30;;
2406;SDS011;37709;53.480;9.688;2023-09-12T10:07:38;24.87;;;22.80;;
2406;SDS011;37709;53.480;9.688;2023-09-12T10:10:08;23.97;;;21.87;;
2406;SDS011;37709;53.480;9.688;2023-09-12T10:12:39;23.30;;;21.20;;
2406;SDS011;37709;53.480;9.688;2023-09-12T10:15:17;27.37;;;24.70;;
2406;SDS011;37709;53.480;9.688;2023-09-12T10:17:46;27.17;;;24.70;;
2406;SDS011;37709;53.480;9.688;2023-09-12T10:20:19;27.63;;;25.13;;
2406;SDS011;37709;53.480;9.688;2023-09-12T10:22:55;26.87;;;24.50;;
2406;SDS011;37709;53.480;9.688;2023-09-12T10:25:32;25.73;;;23.53;;
2406;SDS011;37709;53.480;9.688;2023-09-12T10:28:05;26.20;;;24.00;;
2406;SDS011;37709;53.480;9.688;2023-09-12T10:30:33;27.00;;;24.67;;
2406;SDS011;37709;53.480;9.688;2023-09-12T10:33:04;25.70;;;23.50;;
2406;SDS011;37709;53.480;9.688;2023-09-12T10:35:34;27.23;;;24.73;;
2406;SDS011;37709;53.480;9.688;2023-09-12T10:38:07;24.83;;;22.73;;
2406;SDS011;37709;53.480;9.688;2023-09-12T10:40:36;28.10;;;25.60;;
2406;SDS011;37709;53.480;9.688;2023-09-12T10:46:04;28.83;;;26.03;;
2406;SDS011;37709;53.480;9.688;2023-09-12T10:48:31;29.37;;;26.67;;
2406;SDS011;37709;53.480;9.688;2023-09-12T10:51:02;28.27;;;25.97;;
2406;SDS011;37709;53.480;9.688;2023-09-12T10:53:32;30.70;;;27.90;;
2406;SDS011;37709;53.480;9.688;2023-09-12T11:01:34;32.17;;;29.07;;
2406;SDS011;37709;53.480;9.688;2023-09-12T11:06:47;30.63;;;27.90;;
2406;SDS011;37709;53.480;9.688;2023-09-12T11:11:48;25.17;;;22.77;;
2406;SDS011;37709;53.480;9.688;2023-09-12T11:14:24;23.50;;;21.50;;
2406;SDS011;37709;53.480;9.688;2023-09-12T11:19:44;24.27;;;22.17;;
2406;SDS011;37709;53.480;9.688;2023-09-12T11:22:22;24.57;;;22.17;;
2406;SDS011;37709;53.480;9.688;2023-09-12T11:24:54;26.70;;;24.03;;
2406;SDS011;37709;53.480;9.688;2023-09-12T11:27:30;32.30;;;25.30;;
2406;SDS011;37709;53.480;9.688;2023-09-12T11:30:31;37.17;;;28.63;;
2406;SDS011;37709;53.480;9.688;2023-09-12T11:33:04;29.77;;;26.57;;
2406;SDS011;37709;53.480;9.688;2023-09-12T11:35:36;31.73;;;26.90;;
2406;SDS011;37709;53.480;9.688;2023-09-12T11:38:04;29.67;;;26.57;;
2406;SDS011;37709;53.480;9.688;2023-09-12T11:43:23;41.67;;;29.37;;
2406;SDS011;37709;53.480;9.688;2023-09-12T11:45:58;59.73;;;35.70;;
2406;SDS011;37709;53.480;9.688;2023-09-12T11:48:28;70.60;;;38.50;;
2406;SDS011;37709;53.480;9.688;2023-09-12T11:51:01;32.47;;;28.97;;
2406;SDS011;37709;53.480;9.688;2023-09-12T11:53:34;39.87;;;30.87;;
2406;SDS011;37709;53.480;9.688;2023-09-12T11:56:03;30.83;;;27.60;;
2406;SDS011;37709;53.480;9.688;2023-09-12T11:58:30;55.60;;;33.83;;
2406;SDS011;37709;53.480;9.688;2023-09-12T12:00:58;41.07;;;32.43;;
2406;SDS011;37709;53.480;9.688;2023-09-12T12:03:29;30.43;;;27.30;;
2406;SDS011;37709;53.480;9.688;2023-09-12T12:05:59;28.70;;;25.90;;
2406;SDS011;37709;53.480;9.688;2023-09-12T12:08:27;32.47;;;27.77;;
2406;SDS011;37709;53.480;9.688;2023-09-12T12:10:59;27.07;;;24.50;;
2406;SDS011;37709;53.480;9.688;2023-09-12T12:13:28;25.73;;;23.27;;
2406;SDS011;37709;53.480;9.688;2023-09-12T12:15:56;28.47;;;25.70;;
2406;SDS011;37709;53.480;9.688;2023-09-12T12:21:24;28.00;;;24.97;;
2406;SDS011;37709;53.480;9.688;2023-09-12T12:24:01;26.13;;;22.53;;
2406;SDS011;37709;53.480;9.688;2023-09-12T12:29:30;22.10;;;20.20;;
2406;SDS011;37709;53.480;9.688;2023-09-12T12:32:00;21.73;;;19.93;;
2406;SDS011;37709;53.480;9.688;2023-09-12T12:34:29;21.17;;;19.37;;
2406;SDS011;37709;53.480;9.688;2023-09-12T12:37:17;21.47;;;19.67;;
2406;SDS011;37709;53.480;9.688;2023-09-12T12:39:49;21.50;;;19.50;;
2406;SDS011;37709;53.480;9.688;2023-09-12T12:42:20;19.80;;;18.10;;
2406;SDS011;37709;53.480;9.688;2023-09-12T12:44:56;20.00;;;18.23;;
2406;SDS011;37709;53.480;9.688;2023-09-12T12:47:26;21.17;;;19.30;;
2406;SDS011;37709;53.480;9.688;2023-09-12T12:49:57;18.50;;;16.80;;
2406;SDS011;37709;53.480;9.688;2023-09-12T12:52:25;18.07;;;16.60;;
2406;SDS011;37709;53.480;9.688;2023-09-12T12:54:53;18.77;;;17.37;;
2406;SDS011;37709;53.480;9.688;2023-09-12T12:57:29;19.17;;;17.33;;
2406;SDS011;37709;53.480;9.688;2023-09-12T12:59:58;17.00;;;15.70;;
2406;SDS011;37709;53.480;9.688;2023-09-12T13:05:27;18.47;;;16.77;;
2406;SDS011;37709;53.480;9.688;2023-09-12T13:07:57;17.77;;;16.37;;
2406;SDS011;37709;53.480;9.688;2023-09-12T13:13:22;15.27;;;14.07;;
2406;SDS011;37709;53.480;9.688;2023-09-12T13:15:52;16.67;;;15.33;;
2406;SDS011;37709;53.480;9.688;2023-09-12T13:18:21;16.10;;;14.70;;
2406;SDS011;37709;53.480;9.688;2023-09-12T13:20:48;15.93;;;14.60;;
2406;SDS011;37709;53.480;9.688;2023-09-12T13:23:17;14.07;;;12.97;;
2406;SDS011;37709;53.480;9.688;2023-09-12T13:25:46;15.00;;;13.80;;
2406;SDS011;37709;53.480;9.688;2023-09-12T13:28:15;16.60;;;15.20;;
2406;SDS011;37709;53.480;9.688;2023-09-12T13:33:46;15.57;;;14.47;;
2406;SDS011;37709;53.480;9.688;2023-09-12T13:36:19;17.10;;;15.80;;
2406;SDS011;37709;53.480;9.688;2023-09-12T13:38:47;16.77;;;15.47;;
2406;SDS011;37709;53.480;9.688;2023-09-12T13:44:13;14.87;;;13.77;;
2406;SDS011;37709;53.480;9.688;2023-09-12T13:46:45;16.10;;;14.90;;
2406;SDS011;37709;53.480;9.688;2023-09-12T13:49:14;15.97;;;14.77;;
2406;SDS011;37709;53.480;9.688;2023-09-12T13:51:41;14.87;;;13.80;;
2406;SDS011;37709;53.480;9.688;2023-09-12T13:54:15;17.30;;;15.80;;
2406;SDS011;37709;53.480;9.688;2023-09-12T13:56:43;16.77;;;15.47;;
2406;SDS011;37709;53.480;9.688;2023-09-12T13:59:14;15.83;;;14.50;;
2406;SDS011;37709;53.480;9.688;2023-09-12T14:01:43;14.23;;;12.83;;
2406;SDS011;37709;53.480;9.688;2023-09-12T14:04:11;14.67;;;13.57;;
2406;SDS011;37709;53.480;9.688;2023-09-12T14:06:43;14.93;;;13.83;;
2406;SDS011;37709;53.480;9.688;2023-09-12T14:12:09;14.90;;;13.63;;
2406;SDS011;37709;53.480;9.688;2023-09-12T14:14:51;16.20;;;14.97;;
2406;SDS011;37709;53.480;9.688;2023-09-12T14:17:33;14.50;;;13.30;;
2406;SDS011;37709;53.480;9.688;2023-09-12T14:20:02;14.17;;;13.17;;
2406;SDS011;37709;53.480;9.688;2023-09-12T14:22:32;15.50;;;14.30;;
2406;SDS011;37709;53.480;9.688;2023-09-12T14:25:02;15.07;;;14.03;;
2406;SDS011;37709;53.480;9.688;2023-09-12T14:27:33;16.47;;;15.13;;
2406;SDS011;37709;53.480;9.688;2023-09-12T14:30:00;16.27;;;14.97;;
2406;SDS011;37709;53.480;9.688;2023-09-12T14:32:30;15.27;;;13.87;;
2406;SDS011;37709;53.480;9.688;2023-09-12T14:35:00;14.97;;;13.80;;
2406;SDS011;37709;53.480;9.688;2023-09-12T14:37:27;15.93;;;14.63;;
2406;SDS011;37709;53.480;9.688;2023-09-12T14:42:51;14.97;;;13.77;;
2406;SDS011;37709;53.480;9.688;2023-09-12T14:45:18;13.60;;;12.60;;
2406;SDS011;37709;53.480;9.688;2023-09-12T14:47:46;13.73;;;12.63;;
2406;SDS011;37709;53.480;9.688;2023-09-12T14:50:13;13.97;;;12.87;;
2406;SDS011;37709;53.480;9.688;2023-09-12T14:52:41;13.67;;;12.67;;
2406;SDS011;37709;53.480;9.688;2023-09-12T14:55:09;12.13;;;11.13;;
2406;SDS011;37709;53.480;9.688;2023-09-12T15:00:38;14.17;;;12.87;;
2406;SDS011;37709;53.480;9.688;2023-09-12T15:03:07;13.60;;;12.50;;
2406;SDS011;37709;53.480;9.688;2023-09-12T15:05:35;13.47;;;12.17;;
2406;SDS011;37709;53.480;9.688;2023-09-12T15:08:02;13.90;;;12.83;;
2406;SDS011;37709;53.480;9.688;2023-09-12T15:10:33;12.43;;;11.53;;
2406;SDS011;37709;53.480;9.688;2023-09-12T15:13:00;15.13;;;13.93;;
2406;SDS011;37709;53.480;9.688;2023-09-12T15:15:31;12.77;;;11.77;;
2406;SDS011;37709;53.480;9.688;2023-09-12T15:17:59;15.30;;;14.03;;
2406;SDS011;37709;53.480;9.688;2023-09-12T15:20:32;14.30;;;13.20;;
2406;SDS011;37709;53.480;9.688;2023-09-12T15:23:05;11.83;;;10.97;;
2406;SDS011;37709;53.480;9.688;2023-09-12T15:25:33;14.87;;;13.67;;
2406;SDS011;37709;53.480;9.688;2023-09-12T15:28:04;13.77;;;12.57;;
2406;SDS011;37709;53.480;9.688;2023-09-12T15:30:32;15.30;;;14.17;;
2406;SDS011;37709;53.480;9.688;2023-09-12T15:32:59;14.70;;;13.50;;
2406;SDS011;37709;53.480;9.688;2023-09-12T15:35:27;14.13;;;13.03;;
2406;SDS011;37709;53.480;9.688;2023-09-12T15:37:55;15.77;;;14.47;;
2406;SDS011;37709;53.480;9.688;2023-09-12T15:40:24;16.43;;;15.10;;
2406;SDS011;37709;53.480;9.688;2023-09-12T15:42:55;14.20;;;13.20;;
2406;SDS011;37709;53.480;9.688;2023-09-12T15:45:24;15.70;;;14.50;;
2406;SDS011;37709;53.480;9.688;2023-09-12T15:47:55;13.87;;;12.87;;
2406;SDS011;37709;53.480;9.688;2023-09-12T15:50:22;15.33;;;14.17;;
2406;SDS011;37709;53.480;9.688;2023-09-12T15:52:50;13.90;;;12.90;;
2406;SDS011;37709;53.480;9.688;2023-09-12T15:55:19;14.70;;;13.70;;
2406;SDS011;37709;53.480;9.688;2023-09-12T15:57:49;16.87;;;15.57;;
2406;SDS011;37709;53.480;9.688;2023-09-12T16:00:16;14.97;;;13.83;;
2406;SDS011;37709;53.480;9.688;2023-09-12T16:02:44;14.73;;;13.73;;
2406;SDS011;37709;53.480;9.688;2023-09-12T16:05:15;14.87;;;13.77;;
2406;SDS011;37709;53.480;9.688;2023-09-12T16:07:48;14.77;;;13.67;;
2406;SDS011;37709;53.480;9.688;2023-09-12T16:13:12;14.70;;;13.70;;
2406;SDS011;37709;53.480;9.688;2023-09-12T16:15:41;14.10;;;13.00;;
2406;SDS011;37709;53.480;9.688;2023-09-12T16:18:12;13.67;;;12.60;;
2406;SDS011;37709;53.480;9.688;2023-09-12T16:20:39;15.57;;;14.33;;
2406;SDS011;37709;53.480;9.688;2023-09-12T16:23:11;15.67;;;14.30;;
2406;SDS011;37709;53.480;9.688;2023-09-12T16:25:43;14.10;;;13.10;;
2406;SDS011;37709;53.480;9.688;2023-09-12T16:28:12;15.00;;;13.90;;
2406;SDS011;37709;53.480;9.688;2023-09-12T16:30:43;16.13;;;14.93;;
2406;SDS011;37709;53.480;9.688;2023-09-12T16:33:14;16.70;;;15.30;;